This is the latest recevied weather packets stored in our database for station/object IZ1UKX-13. If no packets are shown the sender has not sent any weather packets the latest 10 day(s).
| Time | Temp. | Humidity | Pressure | Rain* | Wind** | Luminosity | Snow |
|---|---|---|---|---|---|---|---|
| 1777287880 | -1.67° C | 49% | 1023.8 hPa | 0 mm | - | 0 W/m² | - |
| 1777287279 | -1.67° C | 49% | 1023.8 hPa | 0 mm | - | 0 W/m² | - |
| 1777286654 | -1.67° C | 49% | 1028 hPa | 2.03 mm | - | 0 W/m² | - |
| 1777286353 | -1.67° C | 49% | 1028 hPa | 2.03 mm | - | 0 W/m² | - |
| 1777286055 | -1.67° C | 49% | 1028 hPa | 2.03 mm | - | 0 W/m² | - |
| 1777285754 | -1.67° C | 49% | 1028 hPa | 0 mm | - | 0 W/m² | - |
| 1777285454 | 21.67° C | 49% | 1023.2 hPa | 0 mm | - | 0 W/m² | - |
| 1777285154 | -1.67° C | 49% | 1028 hPa | 0 mm | - | 0 W/m² | - |
| 1777284854 | -1.67° C | 49% | 1028 hPa | 0 mm | - | 0 W/m² | - |
| 1777284555 | -1.67° C | 49% | 1028 hPa | 0 mm | - | 0 W/m² | - |
| 1777284254 | -1.67° C | 49% | 1028 hPa | 0 mm | - | 0 W/m² | - |
| 1777283954 | -1.67° C | 49% | 1028 hPa | 0 mm | - | 0 W/m² | - |
| 1777282754 | -22.78° C | 49% | 1033.7 hPa | 0 mm | - | 0 W/m² | - |
| 1777282154 | -22.78° C | 49% | 1033.7 hPa | 0 mm | - | 0 W/m² | - |
| 1777281854 | -1.67° C | 49% | 1028 hPa | 0 mm | - | 0 W/m² | - |
| 1777281554 | -22.78° C | 50% | 1033.7 hPa | 0 mm | - | 0 W/m² | - |
| 1777281254 | -22.78° C | 50% | 1033.7 hPa | 0 mm | - | 0 W/m² | - |
| 1777280955 | -22.78° C | 50% | 1033.7 hPa | 0 mm | - | 0 W/m² | - |
| 1777280354 | -22.78° C | 50% | 1033.7 hPa | 0 mm | - | 0 W/m² | - |
| 1777280054 | -22.78° C | 50% | 1033.7 hPa | 0 mm | - | 0 W/m² | - |
| 1777279754 | -22.78° C | 49% | 1033.7 hPa | 0 mm | - | 0 W/m² | - |
| 1777279454 | -23.33° C | 50% | 1036.8 hPa | 0 mm | - | 0 W/m² | - |
| 1777279154 | -22.78° C | 99% | 1034.6 hPa | 0 mm | - | 0 W/m² | - |
| 1777278854 | -22.78° C | 99% | 1034.1 hPa | 0 mm | - | 0 W/m² | - |
| 1777278555 | -22.78° C | 99% | 1034.6 hPa | 0 mm | - | 0 W/m² | - |
* Rain latest hour (hover to see other rain measurements)
** Current wind speed in m/s (hover to see current wind gust speed)